Time;durP1;ratioP1;P1;durP2;ratioP2;P2;SDS_P1;SDS_P2;PMS_P1;PMS_P2;Temp;Humidity;BMP_temperature;BMP_pressure;BME280_temperature;BME280_humidity;BME280_pressure;Samples;Min_cycle;Max_cycle;Signal;HPM_P1;HPM_P2
2023/01/17 00:01:11;;;;;;;83.23;32.23;;;;;;;-141.97;100.00;47907.34;5009684;28;20301;-86
2023/01/17 00:09:51;;;;;;;83.73;32.40;;;;;;;-141.97;100.00;47888.13;5012082;28;20229;-86
2023/01/17 00:11:55;;;;;;;87.10;34.47;;;;;;;-141.97;100.00;47957.34;5012347;28;20513;-87
2023/01/17 00:14:20;;;;;;;84.37;34.00;;;;;;;-141.97;100.00;47874.69;5012202;28;20410;-86
2023/01/17 00:16:46;;;;;;;89.67;34.60;;;;;;;-141.97;100.00;47926.56;4994566;28;20564;-87
2023/01/17 01:33:46;;;;;;;97.13;37.10;;;;;;;-141.97;100.00;47905.44;5015893;28;20405;-85
2023/01/17 01:36:11;;;;;;;99.77;36.27;;;;;;;-141.97;100.00;47911.19;4998292;28;20418;-85
2023/01/17 01:38:37;;;;;;;108.47;41.53;;;;;;;-141.97;100.00;47922.72;5016141;28;20171;-85
2023/01/17 01:41:03;;;;;;;101.23;39.27;;;;;;;-141.97;100.00;47903.50;4998019;28;20174;-85
2023/01/17 01:43:50;;;;;;;111.60;42.57;;;;;;;-141.97;100.00;47953.50;5001198;28;20442;-85
2023/01/17 01:46:30;;;;;;;110.87;41.23;;;;;;;-141.97;100.00;47926.56;5015159;28;20918;-85
2023/01/17 01:49:01;;;;;;;106.43;41.70;;;;;;;-141.97;100.00;48003.47;5015145;28;20457;-86
2023/01/17 01:51:34;;;;;;;101.10;38.90;;;;;;;-141.97;100.00;47915.03;4997049;28;20177;-86
2023/01/17 01:54:24;;;;;;;99.37;37.83;;;;;;;-141.97;100.00;47922.72;4975627;28;20698;-85
2023/01/17 01:56:51;;;;;;;93.83;37.50;;;;;;;-141.97;100.00;47907.34;4975559;28;20187;-85
2023/01/17 01:59:20;;;;;;;102.37;38.20;;;;;;;-141.97;100.00;47928.50;4974629;28;20430;-87
2023/01/17 02:01:47;;;;;;;93.63;36.93;;;;;;;-141.97;100.00;48011.16;4994452;28;20399;-86
2023/01/17 02:04:13;;;;;;;101.37;38.20;;;;;;;-141.97;100.00;47884.28;4981657;28;20961;-87
2023/01/17 02:06:46;;;;;;;99.63;38.23;;;;;;;-141.97;100.00;47830.47;4975756;28;20403;-86
2023/01/17 02:09:15;;;;;;;97.83;37.53;;;;;;;-141.97;100.00;47817.00;4975393;28;20467;-86
2023/01/17 02:11:42;;;;;;;99.10;39.20;;;;;;;-141.97;100.00;47851.59;4974376;28;20612;-87
2023/01/17 02:14:08;;;;;;;99.10;38.13;;;;;;;-141.97;100.00;47957.34;4976373;28;20422;-87
2023/01/17 02:17:14;;;;;;;101.60;38.53;;;;;;;-141.97;100.00;47961.19;4975181;28;20792;-86
2023/01/17 02:20:17;;;;;;;97.47;37.10;;;;;;;-141.97;100.00;47941.94;4975117;28;20669;-86
2023/01/17 02:22:45;;;;;;;95.80;36.20;;;;;;;-141.97;100.00;47976.56;4975201;28;20416;-86
2023/01/17 02:25:18;;;;;;;103.50;38.50;;;;;;;-141.97;100.00;47936.19;4973928;28;20816;-86
2023/01/17 02:28:21;;;;;;;100.10;38.30;;;;;;;-141.97;100.00;47907.34;4975082;28;20466;-87
2023/01/17 02:30:55;;;;;;;102.27;39.00;;;;;;;-141.97;100.00;47934.25;4974953;28;20442;-86
2023/01/17 02:33:27;;;;;;;103.37;37.93;;;;;;;-141.97;100.00;47930.41;4974832;28;20435;-86
2023/01/17 02:36:14;;;;;;;98.63;36.87;;;;;;;-141.97;100.00;47941.94;4973084;28;20427;-86
2023/01/17 02:38:51;;;;;;;100.93;37.97;;;;;;;-141.97;100.00;47924.66;4974762;28;20411;-86
2023/01/17 02:41:29;;;;;;;101.67;36.17;;;;;;;-141.97;100.00;47953.50;4975036;28;20411;-87
2023/01/17 02:43:55;;;;;;;101.57;36.73;;;;;;;-141.97;100.00;47922.72;4976222;28;20419;-86
2023/01/17 02:46:21;;;;;;;105.73;38.53;;;;;;;-141.97;100.00;47934.25;4973554;28;20423;-86
2023/01/17 02:48:48;;;;;;;141.40;50.07;;;;;;;-141.97;100.00;47938.09;4974756;28;20204;-86
2023/01/17 02:51:37;;;;;;;115.70;43.33;;;;;;;-141.97;100.00;47995.78;4973420;28;20187;-86
2023/01/17 02:54:17;;;;;;;103.43;39.33;;;;;;;-141.97;100.00;47918.88;4974730;28;20447;-86
2023/01/17 02:56:43;;;;;;;110.13;40.27;;;;;;;-141.97;100.00;47978.47;4976356;28;20415;-86
2023/01/17 02:59:11;;;;;;;110.40;38.57;;;;;;;-141.97;100.00;47920.81;4992499;28;20412;-86
2023/01/17 03:01:42;;;;;;;131.60;46.57;;;;;;;-141.97;100.00;47916.97;4981951;28;20179;-86
2023/01/17 03:04:17;;;;;;;103.20;39.33;;;;;;;-141.97;100.00;47941.94;4973071;28;21321;-86
2023/01/17 03:06:49;;;;;;;93.07;37.70;;;;;;;-141.97;100.00;47903.50;4974226;28;20796;-87
2023/01/17 03:09:17;;;;;;;175.67;60.13;;;;;;;-141.97;100.00;47922.72;4974860;28;20455;-86
2023/01/17 03:11:43;;;;;;;95.87;35.43;;;;;;;-141.97;100.00;47866.97;4974272;28;20404;-87
2023/01/17 03:14:08;;;;;;;83.20;32.17;;;;;;;-141.97;100.00;47872.75;4972817;28;20419;-86
2023/01/17 03:16:34;;;;;;;92.97;33.30;;;;;;;-141.97;100.00;47880.44;4973033;28;20703;-87
2023/01/17 03:18:59;;;;;;;91.70;35.03;;;;;;;-141.97;100.00;47824.69;4973102;28;20208;-88
2023/01/17 03:21:25;;;;;;;96.40;39.03;;;;;;;-141.97;100.00;47974.63;4972963;28;20659;-86
2023/01/17 03:23:50;;;;;;;91.50;36.30;;;;;;;-141.97;100.00;47972.72;4982968;28;20263;-87
2023/01/17 03:26:16;;;;;;;94.13;37.07;;;;;;;-141.97;100.00;47934.25;4995410;28;20156;-87
2023/01/17 03:28:41;;;;;;;93.80;34.83;;;;;;;-141.97;100.00;47926.56;4994072;28;20657;-87
2023/01/17 03:31:07;;;;;;;105.40;40.20;;;;;;;-141.97;100.00;47930.41;4974937;28;20168;-86
2023/01/17 03:33:32;;;;;;;99.83;39.53;;;;;;;-141.97;100.00;48001.53;4974643;28;20168;-86
2023/01/17 03:35:58;;;;;;;131.53;47.23;;;;;;;-141.97;100.00;47899.66;4974553;28;20183;-87
2023/01/17 03:38:28;;;;;;;102.17;38.83;;;;;;;-141.97;100.00;47961.19;4973588;28;20267;-87
2023/01/17 03:40:53;;;;;;;94.40;36.10;;;;;;;-141.97;100.00;47957.34;4973375;28;20318;-86
2023/01/17 03:43:19;;;;;;;99.47;36.67;;;;;;;-141.97;100.00;47930.41;4973076;28;20949;-87
2023/01/17 03:45:48;;;;;;;100.87;38.00;;;;;;;-141.97;100.00;47984.25;4973801;28;20234;-88
2023/01/17 03:48:14;;;;;;;111.37;41.90;;;;;;;-141.97;100.00;47965.03;4973679;28;20199;-86
2023/01/17 03:50:39;;;;;;;147.90;55.73;;;;;;;-141.97;100.00;47972.72;4973967;28;20436;-87
2023/01/17 03:53:04;;;;;;;133.00;49.03;;;;;;;-141.97;100.00;47790.09;4999525;28;20766;-86
2023/01/17 03:55:30;;;;;;;126.70;48.33;;;;;;;-141.97;100.00;47924.66;5013030;28;20233;-85
2023/01/17 03:57:55;;;;;;;128.00;48.87;;;;;;;-141.97;100.00;47924.66;4995191;28;20635;-86
2023/01/17 04:00:21;;;;;;;118.37;44.57;;;;;;;-141.97;100.00;48030.38;5018337;28;20170;-87
2023/01/17 04:02:46;;;;;;;103.57;40.13;;;;;;;-141.97;100.00;47976.56;5004271;28;20179;-87
2023/01/17 04:05:12;;;;;;;117.17;42.90;;;;;;;-141.97;100.00;47870.81;5032151;28;20174;-88
2023/01/17 04:07:37;;;;;;;154.33;56.97;;;;;;;-141.97;100.00;47859.28;5018898;28;20705;-86
2023/01/17 04:10:03;;;;;;;129.83;48.07;;;;;;;-141.97;100.00;47934.25;5016866;28;20178;-86
2023/01/17 04:12:29;;;;;;;120.57;45.67;;;;;;;-141.97;100.00;47888.13;5012656;28;20187;-86
2023/01/17 04:14:54;;;;;;;92.57;33.57;;;;;;;-141.97;100.00;47966.94;5012964;28;20418;-86
2023/01/17 04:17:20;;;;;;;80.73;32.50;;;;;;;-141.97;100.00;47924.66;5018109;28;20642;-86
2023/01/17 04:19:46;;;;;;;68.77;27.27;;;;;;;-141.97;100.00;47874.69;5018920;28;20201;-87
2023/01/17 04:22:11;;;;;;;80.33;31.03;;;;;;;-141.97;100.00;47830.47;5016766;28;20651;-87
2023/01/17 04:24:36;;;;;;;88.87;31.80;;;;;;;-141.97;100.00;47991.94;5017324;28;20417;-86
2023/01/17 04:27:05;;;;;;;71.60;24.60;;;;;;;-141.97;100.00;47936.19;5015531;28;20182;-87
2023/01/17 04:29:30;;;;;;;75.43;30.27;;;;;;;-141.97;100.00;47799.72;4995878;28;20215;-86
2023/01/17 04:31:59;;;;;;;90.27;32.03;;;;;;;-141.97;100.00;48026.53;5005321;28;20548;-88
2023/01/17 04:34:24;;;;;;;96.13;32.10;;;;;;;-141.97;100.00;47911.19;5009056;28;20659;-86
2023/01/17 04:36:50;;;;;;;102.07;36.03;;;;;;;-141.97;100.00;47897.75;4992641;28;20434;-88
2023/01/17 04:39:15;;;;;;;107.87;39.23;;;;;;;-141.97;100.00;47940.03;5022069;28;20163;-87
2023/01/17 04:41:42;;;;;;;97.43;35.93;;;;;;;-141.97;100.00;47824.69;5005368;28;20176;-85
2023/01/17 04:44:08;;;;;;;105.40;36.90;;;;;;;-141.97;100.00;47926.56;5014273;28;20169;-86
2023/01/17 04:46:33;;;;;;;99.07;33.37;;;;;;;-141.97;100.00;47876.59;5014500;28;20504;-86
2023/01/17 04:48:59;;;;;;;109.27;35.63;;;;;;;-141.97;100.00;47857.38;5017457;28;20206;-86
2023/01/17 04:51:24;;;;;;;112.47;35.97;;;;;;;-141.97;100.00;47895.81;5017065;28;20167;-87
2023/01/17 04:53:50;;;;;;;96.20;29.97;;;;;;;-141.97;100.00;47988.09;5013176;28;20228;-86
2023/01/17 04:56:15;;;;;;;119.23;35.10;;;;;;;-141.97;100.00;47918.88;5021743;28;20190;-86
2023/01/17 04:58:41;;;;;;;137.73;36.67;;;;;;;-141.97;100.00;47905.44;5020491;28;20254;-87
2023/01/17 05:01:08;;;;;;;142.03;43.03;;;;;;;-141.97;100.00;47932.34;5001704;28;20243;-86
2023/01/17 05:03:34;;;;;;;143.93;37.90;;;;;;;-141.97;100.00;47953.50;5022244;28;20197;-87
2023/01/17 05:06:02;;;;;;;135.40;40.03;;;;;;;-141.97;100.00;47907.34;5023211;28;20441;-88
2023/01/17 05:08:27;;;;;;;151.13;44.97;;;;;;;-141.97;100.00;47799.72;5027868;28;20179;-86
2023/01/17 05:10:53;;;;;;;150.63;43.53;;;;;;;-141.97;100.00;47953.50;5024550;28;20425;-90
2023/01/17 05:13:18;;;;;;;140.93;40.27;;;;;;;-141.97;100.00;47811.25;5003837;28;20200;-87
2023/01/17 05:15:45;;;;;;;241.97;93.23;;;;;;;-141.97;100.00;47988.09;5023119;28;20174;-86
2023/01/17 05:18:13;;;;;;;125.50;41.77;;;;;;;-141.97;100.00;47926.56;4986621;28;20202;-88
2023/01/17 05:20:38;;;;;;;104.40;31.17;;;;;;;-141.97;100.00;47970.78;5022347;28;20406;-86
2023/01/17 05:23:04;;;;;;;100.60;32.03;;;;;;;-141.97;100.00;47836.22;5012016;28;20416;-88
2023/01/17 05:25:32;;;;;;;115.17;38.57;;;;;;;-141.97;100.00;47815.09;5031378;28;20183;-87
2023/01/17 05:27:59;;;;;;;113.40;40.87;;;;;;;-141.97;100.00;47941.94;5035168;28;20433;-88
2023/01/17 05:30:25;;;;;;;163.77;58.43;;;;;;;-141.97;100.00;47926.56;5035926;28;20405;-87
2023/01/17 05:32:54;;;;;;;139.27;48.20;;;;;;;-141.97;100.00;47866.97;5018800;28;20421;-86
2023/01/17 05:35:23;;;;;;;140.07;50.93;;;;;;;-141.97;100.00;47926.56;5035924;28;20499;-85
2023/01/17 05:37:50;;;;;;;133.93;39.40;;;;;;;-141.97;100.00;47901.59;5013621;28;20460;-86
2023/01/17 05:40:18;;;;;;;111.40;33.43;;;;;;;-141.97;100.00;47872.75;4998392;28;20560;-86
2023/01/17 05:42:48;;;;;;;166.17;51.07;;;;;;;-141.97;100.00;47840.06;5015794;28;20425;-86
2023/01/17 05:45:15;;;;;;;160.07;46.13;;;;;;;-141.97;100.00;47868.91;5011253;28;20420;-87
2023/01/17 05:47:46;;;;;;;220.90;69.03;;;;;;;-141.97;100.00;47855.44;5011687;28;20448;-88
2023/01/17 05:50:13;;;;;;;311.23;104.40;;;;;;;-141.97;100.00;47880.44;5142129;23;20493;-88
2023/01/17 05:52:39;;;;;;;245.40;76.90;;;;;;;-141.97;100.00;47941.94;5085051;23;20494;-87
2023/01/17 05:55:06;;;;;;;248.53;80.97;;;;;;;-141.97;100.00;47905.44;5071614;28;20431;-86
2023/01/17 05:57:32;;;;;;;264.73;83.80;;;;;;;-141.97;100.00;47903.50;5072184;28;20169;-87
2023/01/17 05:59:58;;;;;;;228.53;69.00;;;;;;;-141.97;100.00;47851.59;5068058;28;20500;-86
2023/01/17 06:02:27;;;;;;;196.17;62.43;;;;;;;-141.97;100.00;47870.81;5067840;28;20412;-88
2023/01/17 06:04:52;;;;;;;179.20;51.63;;;;;;;-141.97;100.00;47955.41;5066825;28;20189;-89
2023/01/17 06:07:18;;;;;;;158.33;41.37;;;;;;;-141.97;100.00;47930.41;5089457;28;20487;-87
2023/01/17 06:09:43;;;;;;;165.83;47.67;;;;;;;-141.97;100.00;47895.81;5066607;28;20243;-87
2023/01/17 06:12:09;;;;;;;163.40;45.93;;;;;;;-141.97;100.00;48018.84;5055348;28;20173;-86
2023/01/17 06:14:34;;;;;;;142.40;40.20;;;;;;;-141.97;100.00;47888.13;5058806;28;20169;-87
2023/01/17 06:16:59;;;;;;;167.43;46.47;;;;;;;-141.97;100.00;47940.03;5057967;28;20200;-88
2023/01/17 06:19:25;;;;;;;271.00;81.73;;;;;;;-141.97;100.00;47938.09;5054386;28;20692;-86
2023/01/17 06:21:51;;;;;;;197.13;64.87;;;;;;;-141.97;100.00;47913.13;5056339;28;20245;-87
2023/01/17 06:24:16;;;;;;;238.63;79.13;;;;;;;-141.97;100.00;47809.31;5061758;28;20219;-87
2023/01/17 06:26:45;;;;;;;174.40;51.50;;;;;;;-141.97;100.00;47963.09;5059696;28;20165;-85
2023/01/17 06:29:11;;;;;;;174.83;47.87;;;;;;;-141.97;100.00;47824.69;5060562;28;20277;-86
2023/01/17 06:31:36;;;;;;;152.83;38.50;;;;;;;-141.97;100.00;47853.53;5058957;28;20404;-90
2023/01/17 06:34:03;;;;;;;163.20;41.60;;;;;;;-141.97;100.00;47834.31;5053403;28;20427;-88
2023/01/17 06:36:29;;;;;;;172.23;55.97;;;;;;;-141.97;100.00;47886.22;5054391;28;20173;-88
2023/01/17 06:38:54;;;;;;;178.63;49.40;;;;;;;-141.97;100.00;47853.53;5053131;28;20412;-87
2023/01/17 06:41:22;;;;;;;142.30;37.43;;;;;;;-141.97;100.00;47909.28;5059165;28;20428;-90
2023/01/17 06:43:48;;;;;;;133.97;36.83;;;;;;;-141.97;100.00;47949.66;5066276;28;20177;-85
2023/01/17 06:46:14;;;;;;;132.30;33.37;;;;;;;-141.97;100.00;47845.84;5058919;28;20443;-87
2023/01/17 06:48:44;;;;;;;130.77;38.50;;;;;;;-141.97;100.00;47959.25;5052144;28;20236;-93
2023/01/17 06:51:09;;;;;;;142.03;41.07;;;;;;;-141.97;100.00;47984.25;5052442;28;20415;-86
2023/01/17 06:53:36;;;;;;;191.83;63.40;;;;;;;-141.97;100.00;48001.53;5058356;28;20927;-87
2023/01/17 06:56:05;;;;;;;150.60;49.37;;;;;;;-141.97;100.00;47980.41;5063948;28;20185;-89
2023/01/17 06:58:30;;;;;;;137.80;39.07;;;;;;;-141.97;100.00;47951.56;5070120;28;20391;-84
2023/01/17 07:00:56;;;;;;;144.03;44.50;;;;;;;-141.97;100.00;47961.19;5065801;28;20396;-85
2023/01/17 07:03:23;;;;;;;238.40;83.60;;;;;;;-141.97;100.00;48005.38;5066247;28;20257;-87
2023/01/17 07:05:50;;;;;;;228.33;80.50;;;;;;;-141.97;100.00;47947.72;5065480;28;20648;-88
2023/01/17 07:08:16;;;;;;;122.10;36.60;;;;;;;-141.97;100.00;47920.81;5067173;28;20462;-85
2023/01/17 07:10:44;;;;;;;130.63;44.70;;;;;;;-141.97;100.00;47930.41;5068943;28;20412;-87
2023/01/17 07:13:10;;;;;;;118.17;37.23;;;;;;;-141.97;100.00;47930.41;5046682;28;20464;-84
2023/01/17 07:15:36;;;;;;;212.93;68.17;;;;;;;-141.97;100.00;47901.59;5057567;28;20947;-85
2023/01/17 07:18:02;;;;;;;153.23;44.80;;;;;;;-141.97;100.00;47918.88;5073101;28;20404;-86
2023/01/17 07:20:28;;;;;;;130.47;36.63;;;;;;;-141.97;100.00;47909.28;5058182;28;20172;-86
2023/01/17 07:22:53;;;;;;;185.27;60.47;;;;;;;-141.97;100.00;47866.97;5062175;28;20404;-86
2023/01/17 07:25:19;;;;;;;153.80;50.70;;;;;;;-141.97;100.00;47905.44;5055655;28;20162;-84
2023/01/17 07:27:45;;;;;;;220.57;71.90;;;;;;;-141.97;100.00;47863.13;5052897;28;20566;-84
2023/01/17 07:30:11;;;;;;;146.97;50.43;;;;;;;-141.97;100.00;47886.22;5054430;28;20173;-85
2023/01/17 07:32:36;;;;;;;125.90;41.10;;;;;;;-141.97;100.00;48003.47;5054061;28;20250;-86
2023/01/17 07:35:02;;;;;;;118.57;38.00;;;;;;;-141.97;100.00;47949.66;5052228;28;20633;-85
2023/01/17 07:37:27;;;;;;;77.73;20.97;;;;;;;-141.97;100.00;47953.50;5053114;28;20165;-85
2023/01/17 07:39:53;;;;;;;125.23;38.27;;;;;;;-141.97;100.00;47834.31;5050880;28;20227;-86
2023/01/17 07:42:19;;;;;;;122.83;36.90;;;;;;;-141.97;100.00;47792.03;5052481;28;20559;-85
2023/01/17 07:44:44;;;;;;;113.37;33.70;;;;;;;-141.97;100.00;47991.94;5051220;28;20408;-86
2023/01/17 07:47:10;;;;;;;103.73;34.20;;;;;;;-141.97;100.00;47930.41;5053590;28;20626;-86
2023/01/17 07:49:35;;;;;;;123.27;32.33;;;;;;;-141.97;100.00;47965.03;5051885;28;20615;-86
2023/01/17 07:52:01;;;;;;;117.37;34.90;;;;;;;-141.97;100.00;47924.66;5050244;28;20256;-86
2023/01/17 07:54:26;;;;;;;116.63;33.77;;;;;;;-141.97;100.00;47997.69;5051657;28;20177;-86
2023/01/17 07:56:52;;;;;;;116.20;34.97;;;;;;;-141.97;100.00;48016.94;5052322;28;20166;-85
2023/01/17 07:59:17;;;;;;;103.43;34.00;;;;;;;-141.97;100.00;47938.09;5050944;28;20248;-86
2023/01/17 08:01:43;;;;;;;106.70;34.40;;;;;;;-141.97;100.00;48018.84;5050762;28;20234;-86
2023/01/17 08:04:09;;;;;;;111.43;34.40;;;;;;;-141.97;100.00;47922.72;5050937;28;20617;-86
2023/01/17 08:06:37;;;;;;;100.70;33.70;;;;;;;-141.97;100.00;47930.41;5050691;28;20206;-87
2023/01/17 08:09:02;;;;;;;91.90;31.53;;;;;;;-141.97;100.00;47945.81;5051847;28;20197;-86
2023/01/17 08:11:29;;;;;;;104.07;33.80;;;;;;;-141.97;100.00;47891.97;5063283;28;20194;-86
2023/01/17 08:13:58;;;;;;;97.70;32.83;;;;;;;-141.97;100.00;47936.19;5070644;28;20233;-87
2023/01/17 08:16:24;;;;;;;109.67;33.73;;;;;;;-141.97;100.00;47888.13;5069743;28;20176;-84
2023/01/17 08:18:50;;;;;;;108.10;35.77;;;;;;;-141.97;100.00;47880.44;5054558;28;20185;-86
2023/01/17 08:21:16;;;;;;;107.43;32.60;;;;;;;-141.97;100.00;47888.13;5043625;28;20178;-86
2023/01/17 08:23:42;;;;;;;103.83;34.77;;;;;;;-141.97;100.00;47842.00;5032713;28;20162;-87
2023/01/17 08:26:08;;;;;;;101.03;33.43;;;;;;;-141.97;100.00;47836.22;5031028;28;20609;-87
2023/01/17 08:28:33;;;;;;;98.03;33.37;;;;;;;-141.97;100.00;47866.97;5032433;28;20186;-85
2023/01/17 08:31:08;;;;;;;115.97;39.13;;;;;;;-141.97;100.00;47895.81;5045558;28;20177;-88
2023/01/17 08:33:33;;;;;;;111.17;36.17;;;;;;;-141.97;100.00;47947.72;5050783;28;20271;-87
2023/01/17 08:35:59;;;;;;;105.67;36.03;;;;;;;-141.97;100.00;47972.72;5050767;28;20665;-86
2023/01/17 08:38:24;;;;;;;120.60;39.43;;;;;;;-141.97;100.00;47968.88;5052009;28;20709;-86
2023/01/17 08:40:49;;;;;;;112.97;39.13;;;;;;;-141.97;100.00;47861.22;5050911;28;20169;-86
2023/01/17 08:43:15;;;;;;;113.83;37.13;;;;;;;-141.97;100.00;48026.53;5057043;28;20165;-86
2023/01/17 08:45:44;;;;;;;105.17;36.43;;;;;;;-141.97;100.00;47922.72;5059939;28;20173;-86
2023/01/17 08:48:09;;;;;;;96.60;35.33;;;;;;;-141.97;100.00;47934.25;5060003;28;20278;-87
2023/01/17 08:50:35;;;;;;;97.63;33.67;;;;;;;-141.97;100.00;47984.25;5056291;28;20614;-88
2023/01/17 08:53:00;;;;;;;97.87;33.10;;;;;;;-141.97;100.00;47911.19;5043731;28;20241;-88
2023/01/17 08:55:26;;;;;;;110.87;36.20;;;;;;;-141.97;100.00;47922.72;5051418;28;20193;-87
2023/01/17 08:57:51;;;;;;;117.57;39.70;;;;;;;-141.97;100.00;47966.94;5051647;28;20251;-87
2023/01/17 09:00:17;;;;;;;114.23;37.40;;;;;;;-141.97;100.00;47859.28;5049645;28;20188;-88
2023/01/17 09:02:43;;;;;;;102.90;34.03;;;;;;;-141.97;100.00;47857.38;5053393;28;20215;-89
2023/01/17 09:05:08;;;;;;;93.77;34.27;;;;;;;-141.97;100.00;47788.19;5054069;28;20181;-89
2023/01/17 09:07:34;;;;;;;99.13;34.37;;;;;;;-141.97;100.00;47941.94;5054310;28;20228;-88
2023/01/17 09:09:59;;;;;;;92.17;33.03;;;;;;;-141.97;100.00;47965.03;5054022;28;20595;-88
2023/01/17 09:12:25;;;;;;;92.23;34.67;;;;;;;-141.97;100.00;47876.59;5060643;28;20697;-88
2023/01/17 09:14:51;;;;;;;91.70;34.23;;;;;;;-141.97;100.00;47903.50;5054826;28;20426;-88
2023/01/17 09:17:16;;;;;;;94.37;33.77;;;;;;;-141.97;99.86;47945.81;5055649;28;20252;-88
2023/01/17 09:19:44;;;;;;;97.77;32.63;;;;;;;-141.97;97.98;47826.63;5056496;28;21125;-89
2023/01/17 09:22:13;;;;;;;117.57;37.10;;;;;;;-141.97;98.36;47880.44;5050031;28;20247;-88
2023/01/17 09:24:41;;;;;;;89.87;32.27;;;;;;;-141.97;99.67;47888.13;5033830;28;20277;-87
2023/01/17 09:27:06;;;;;;;102.93;35.60;;;;;;;-141.97;100.00;47972.72;5034749;28;20165;-86
2023/01/17 09:29:32;;;;;;;97.30;35.87;;;;;;;-141.97;99.96;47893.91;5034705;28;20190;-86
2023/01/17 09:31:57;;;;;;;121.90;44.70;;;;;;;-141.97;99.76;47903.50;5055136;28;20185;-86
2023/01/17 09:34:23;;;;;;;165.70;69.83;;;;;;;-141.97;99.07;47868.91;5055111;28;20149;-85
2023/01/17 09:36:49;;;;;;;119.83;38.87;;;;;;;-141.97;97.88;47934.25;5055041;28;20266;-85
2023/01/17 09:39:15;;;;;;;112.47;39.93;;;;;;;-141.97;97.43;47861.22;5053908;28;20172;-86
2023/01/17 09:41:46;;;;;;;128.83;45.43;;;;;;;-141.97;97.73;47924.66;5054805;28;20166;-85
2023/01/17 09:44:39;;;;;;;111.00;40.50;;;;;;;-141.97;98.57;47897.75;5053684;28;20653;-86
2023/01/17 09:47:25;;;;;;;106.97;38.40;;;;;;;-141.97;98.22;47922.72;5053646;28;20192;-86
2023/01/17 09:49:55;;;;;;;111.67;38.27;;;;;;;-141.97;99.05;47945.81;5053746;28;20646;-86
2023/01/17 09:52:23;;;;;;;104.67;37.03;;;;;;;-141.97;98.89;47888.13;5053195;28;20225;-86
2023/01/17 09:54:50;;;;;;;103.40;36.50;;;;;;;-141.97;98.92;47880.44;5053368;28;20193;-86
2023/01/17 09:57:42;;;;;;;105.20;37.20;;;;;;;-141.97;97.78;47934.25;5055220;28;20184;-86
2023/01/17 10:00:26;;;;;;;99.43;36.87;;;;;;;-141.97;96.65;47895.81;5053738;28;20204;-86
2023/01/17 10:03:16;;;;;;;108.83;40.73;;;;;;;-141.97;95.51;47882.38;5056386;28;20173;-87
2023/01/17 10:06:25;;;;;;;103.73;38.67;;;;;;;-141.97;93.37;47918.88;5071820;28;20174;-86
2023/01/17 10:09:25;;;;;;;115.87;40.40;;;;;;;-141.97;90.21;47911.19;5009338;28;20206;-86
2023/01/17 10:12:21;;;;;;;118.37;44.37;;;;;;;-141.97;89.90;47907.34;5035793;28;20151;-86
2023/01/17 10:14:53;;;;;;;112.07;42.43;;;;;;;-141.97;88.39;47932.34;4994561;28;20207;-85
2023/01/17 10:17:42;;;;;;;110.17;44.40;;;;;;;-141.97;88.02;47957.34;4991739;28;20168;-86
2023/01/17 10:20:32;;;;;;;124.67;50.67;;;;;;;-141.97;87.28;47872.75;4977623;28;20195;-86
2023/01/17 10:23:30;;;;;;;102.63;42.10;;;;;;;-141.97;86.34;47903.50;4976836;28;20164;-86
2023/01/17 10:26:02;;;;;;;107.50;40.47;;;;;;;-141.97;86.49;47888.13;4996267;28;20187;-87
2023/01/17 10:28:37;;;;;;;105.17;43.30;;;;;;;-141.97;86.95;47884.28;4996304;28;20199;-87
2023/01/17 10:31:11;;;;;;;101.30;38.27;;;;;;;-141.97;87.67;47872.75;5018063;28;20163;-86
2023/01/17 10:33:43;;;;;;;101.30;37.50;;;;;;;-141.97;87.84;47911.19;4997292;28;20258;-88
2023/01/17 10:36:19;;;;;;;84.70;34.67;;;;;;;-141.97;88.01;47872.75;4997430;28;20313;-86
2023/01/17 10:38:48;;;;;;;85.80;34.83;;;;;;;-141.97;88.77;47909.28;4977077;28;20194;-86
2023/01/17 10:41:26;;;;;;;81.77;34.00;;;;;;;-141.97;89.26;47784.34;4993861;28;20737;-86
2023/01/17 10:43:58;;;;;;;87.97;36.10;;;;;;;-141.97;89.61;47938.09;4976650;28;20197;-86
2023/01/17 10:46:29;;;;;;;82.00;33.57;;;;;;;-141.97;89.87;47924.66;5054549;28;20300;-87
2023/01/17 10:48:55;;;;;;;82.53;33.77;;;;;;;-141.97;91.97;47991.94;5055963;28;20688;-87
2023/01/17 10:51:48;;;;;;;118.97;48.37;;;;;;;-141.97;92.23;47959.25;5054559;28;20217;-86
2023/01/17 10:54:22;;;;;;;90.47;34.57;;;;;;;-141.97;90.65;47876.59;5053353;28;20174;-86
2023/01/17 10:56:48;;;;;;;71.10;30.17;;;;;;;-141.97;89.96;47961.19;5053699;28;20226;-86
2023/01/17 10:59:32;;;;;;;92.27;38.17;;;;;;;-141.97;89.73;47886.22;5053654;28;20165;-87
2023/01/17 11:01:59;;;;;;;97.20;37.77;;;;;;;-141.97;88.61;47897.75;5053696;28;20157;-86
2023/01/17 11:04:30;;;;;;;83.73;34.03;;;;;;;-141.97;88.46;47888.13;5055334;28;20172;-87
2023/01/17 11:07:11;;;;;;;82.20;33.60;;;;;;;-141.97;86.62;48032.31;5054116;28;20169;-88
2023/01/17 11:09:39;;;;;;;73.80;30.70;;;;;;;-141.97;86.86;48015.00;5056373;28;20604;-87
2023/01/17 11:12:16;;;;;;;86.00;33.87;;;;;;;-141.97;87.80;47868.91;5053092;28;20154;-85
2023/01/17 11:14:55;;;;;;;92.20;37.40;;;;;;;-141.97;87.76;47926.56;5053316;28;20196;-86
2023/01/17 11:17:21;;;;;;;88.67;37.53;;;;;;;-141.97;87.82;47872.75;5054192;28;20180;-86
2023/01/17 11:19:50;;;;;;;85.43;35.63;;;;;;;-141.97;87.79;47936.19;5057440;28;20161;-86
2023/01/17 11:22:16;;;;;;;95.47;37.47;;;;;;;-141.97;86.98;47865.06;5053903;28;20161;-87
2023/01/17 11:24:55;;;;;;;92.47;38.27;;;;;;;-141.97;86.20;47941.94;5050829;28;20552;-87
2023/01/17 11:27:24;;;;;;;97.03;39.70;;;;;;;-141.97;85.78;47822.78;5052761;28;20546;-84
2023/01/17 11:30:17;;;;;;;101.13;39.63;;;;;;;-141.97;85.15;47880.44;5053043;28;20661;-87
2023/01/17 11:32:54;;;;;;;101.40;41.47;;;;;;;-141.97;84.96;47880.44;5051800;28;20169;-87
2023/01/17 11:35:24;;;;;;;102.70;42.37;;;;;;;-141.97;85.41;47938.09;5052493;28;20165;-87
2023/01/17 11:37:51;;;;;;;107.83;44.03;;;;;;;-141.97;85.52;47922.72;5053279;28;20547;-87
2023/01/17 11:40:22;;;;;;;95.13;40.57;;;;;;;-141.97;85.72;48049.59;5051967;28;20173;-86
2023/01/17 11:43:02;;;;;;;113.97;43.20;;;;;;;-141.97;85.82;47932.34;5053068;28;20172;-86
2023/01/17 11:45:31;;;;;;;122.17;52.73;;;;;;;-141.97;86.92;47820.84;5053053;28;20215;-86
2023/01/17 11:48:06;;;;;;;115.80;47.37;;;;;;;-141.97;86.60;47970.78;5051746;28;20661;-85
2023/01/17 11:50:40;;;;;;;108.07;42.67;;;;;;;-141.97;86.78;47886.22;5051212;28;20177;-86
2023/01/17 11:53:26;;;;;;;102.37;43.00;;;;;;;-141.97;87.05;47905.44;5052361;28;20216;-86
2023/01/17 11:56:08;;;;;;;105.60;42.53;;;;;;;-141.97;85.82;47895.81;5051249;28;20252;-87
2023/01/17 11:58:40;;;;;;;107.17;44.63;;;;;;;-141.97;85.01;47924.66;5060034;28;20282;-88
2023/01/17 12:01:24;;;;;;;117.70;42.50;;;;;;;-141.97;85.13;47901.59;5057759;28;20181;-88
2023/01/17 12:04:22;;;;;;;102.83;42.40;;;;;;;-141.97;83.08;47911.19;5056708;28;20169;-87
2023/01/17 12:06:57;;;;;;;91.83;39.00;;;;;;;-141.97;82.67;47924.66;5058050;28;20566;-87
2023/01/17 12:09:50;;;;;;;97.53;40.10;;;;;;;-141.97;81.44;47915.03;5051878;28;20210;-86
2023/01/17 12:15:18;;;;;;;97.73;40.57;;;;;;;-141.97;79.03;47901.59;5064191;28;20539;-86
2023/01/17 12:17:58;;;;;;;77.03;34.77;;;;;;;-141.97;77.81;47876.59;5051914;28;20165;-86
2023/01/17 12:20:49;;;;;;;82.47;36.20;;;;;;;-141.97;79.29;47918.88;5051339;28;20161;-86
2023/01/17 12:23:39;;;;;;;98.93;39.90;;;;;;;-141.97;79.81;47915.03;5050842;28;20251;-86
2023/01/17 12:26:36;;;;;;;115.23;47.20;;;;;;;-141.97;81.77;47913.13;5066706;28;20173;-86
2023/01/17 12:29:39;;;;;;;132.90;53.00;;;;;;;-141.97;83.98;47916.97;4974393;28;20215;-86